sensor_id;sensor_type;location;lat;lon;timestamp;pressure;altitude;pressure_sealevel;temperature;humidity
20119;BME280;10220;42.716;23.306;2023-07-31T00:00:48;94892.47;;;21.24;100.00
20119;BME280;10220;42.716;23.306;2023-07-31T00:03:14;94880.44;;;21.13;100.00
20119;BME280;10220;42.716;23.306;2023-07-31T00:05:39;94903.09;;;21.14;100.00
20119;BME280;10220;42.716;23.306;2023-07-31T00:08:04;94909.31;;;21.28;100.00
20119;BME280;10220;42.716;23.306;2023-07-31T00:10:30;94901.94;;;21.30;100.00
20119;BME280;10220;42.716;23.306;2023-07-31T00:12:55;94909.00;;;21.34;100.00
20119;BME280;10220;42.716;23.306;2023-07-31T00:15:21;94913.81;;;21.27;100.00
20119;BME280;10220;42.716;23.306;2023-07-31T00:17:46;94903.97;;;21.38;100.00
20119;BME280;10220;42.716;23.306;2023-07-31T00:20:12;94896.53;;;21.45;100.00
20119;BME280;10220;42.716;23.306;2023-07-31T00:22:38;94888.94;;;21.38;100.00
20119;BME280;10220;42.716;23.306;2023-07-31T00:25:03;94897.38;;;21.40;100.00
20119;BME280;10220;42.716;23.306;2023-07-31T00:27:31;94895.56;;;21.69;100.00
20119;BME280;10220;42.716;23.306;2023-07-31T00:29:57;94881.28;;;21.75;100.00
20119;BME280;10220;42.716;23.306;2023-07-31T00:32:22;94865.00;;;21.63;100.00
20119;BME280;10220;42.716;23.306;2023-07-31T00:34:48;94867.84;;;21.72;100.00
20119;BME280;10220;42.716;23.306;2023-07-31T00:37:13;94846.44;;;21.45;100.00
20119;BME280;10220;42.716;23.306;2023-07-31T00:39:40;94844.63;;;21.40;100.00
20119;BME280;10220;42.716;23.306;2023-07-31T00:42:06;94847.75;;;21.42;100.00
20119;BME280;10220;42.716;23.306;2023-07-31T00:44:32;94858.25;;;21.52;100.00
20119;BME280;10220;42.716;23.306;2023-07-31T00:46:57;94853.91;;;21.33;100.00
20119;BME280;10220;42.716;23.306;2023-07-31T00:49:24;94870.88;;;21.22;100.00
20119;BME280;10220;42.716;23.306;2023-07-31T00:51:51;94866.59;;;21.31;100.00
20119;BME280;10220;42.716;23.306;2023-07-31T00:54:16;94867.66;;;21.30;100.00
20119;BME280;10220;42.716;23.306;2023-07-31T00:56:45;94860.69;;;21.44;100.00
20119;BME280;10220;42.716;23.306;2023-07-31T00:59:10;94857.09;;;21.35;100.00
20119;BME280;10220;42.716;23.306;2023-07-31T01:01:36;94859.44;;;21.36;100.00
20119;BME280;10220;42.716;23.306;2023-07-31T01:04:02;94854.03;;;21.23;100.00
20119;BME280;10220;42.716;23.306;2023-07-31T01:09:43;94836.75;;;21.02;100.00
20119;BME280;10220;42.716;23.306;2023-07-31T01:12:13;94855.59;;;20.86;100.00
20119;BME280;10220;42.716;23.306;2023-07-31T01:14:39;94848.41;;;20.96;100.00
20119;BME280;10220;42.716;23.306;2023-07-31T01:17:05;94851.66;;;20.83;100.00
20119;BME280;10220;42.716;23.306;2023-07-31T01:19:30;94838.97;;;20.90;100.00
20119;BME280;10220;42.716;23.306;2023-07-31T01:27:34;94836.19;;;20.72;100.00
20119;BME280;10220;42.716;23.306;2023-07-31T01:30:16;94830.63;;;20.78;100.00
20119;BME280;10220;42.716;23.306;2023-07-31T01:32:43;94837.50;;;20.74;100.00
20119;BME280;10220;42.716;23.306;2023-07-31T01:35:09;94844.31;;;20.80;100.00
20119;BME280;10220;42.716;23.306;2023-07-31T01:37:35;94830.16;;;20.66;100.00
20119;BME280;10220;42.716;23.306;2023-07-31T01:40:00;94837.00;;;20.72;100.00
20119;BME280;10220;42.716;23.306;2023-07-31T01:42:29;94817.53;;;20.63;100.00
20119;BME280;10220;42.716;23.306;2023-07-31T01:44:55;94817.22;;;20.70;100.00
20119;BME280;10220;42.716;23.306;2023-07-31T01:47:20;94810.50;;;20.49;100.00
20119;BME280;10220;42.716;23.306;2023-07-31T01:49:45;94797.28;;;20.54;100.00
20119;BME280;10220;42.716;23.306;2023-07-31T01:52:11;94837.78;;;20.73;100.00
20119;BME280;10220;42.716;23.306;2023-07-31T01:54:36;94837.94;;;20.86;100.00
20119;BME280;10220;42.716;23.306;2023-07-31T01:57:02;94842.16;;;20.87;100.00
20119;BME280;10220;42.716;23.306;2023-07-31T01:59:27;94845.13;;;20.71;100.00
20119;BME280;10220;42.716;23.306;2023-07-31T02:01:54;94835.94;;;20.68;100.00
20119;BME280;10220;42.716;23.306;2023-07-31T02:04:19;94845.94;;;20.71;100.00
20119;BME280;10220;42.716;23.306;2023-07-31T02:06:45;94824.34;;;20.64;100.00
20119;BME280;10220;42.716;23.306;2023-07-31T02:09:10;94827.84;;;20.55;100.00
20119;BME280;10220;42.716;23.306;2023-07-31T02:11:35;94844.13;;;20.62;100.00
20119;BME280;10220;42.716;23.306;2023-07-31T02:14:01;94855.91;;;20.69;100.00
20119;BME280;10220;42.716;23.306;2023-07-31T02:16:26;94845.09;;;20.81;100.00
20119;BME280;10220;42.716;23.306;2023-07-31T02:18:52;94847.72;;;20.81;100.00
20119;BME280;10220;42.716;23.306;2023-07-31T02:21:17;94839.50;;;20.92;100.00
20119;BME280;10220;42.716;23.306;2023-07-31T02:23:42;94846.88;;;20.90;100.00
20119;BME280;10220;42.716;23.306;2023-07-31T02:26:08;94824.84;;;20.76;100.00
20119;BME280;10220;42.716;23.306;2023-07-31T02:28:33;94841.47;;;20.72;100.00
20119;BME280;10220;42.716;23.306;2023-07-31T02:30:59;94837.13;;;20.91;100.00
20119;BME280;10220;42.716;23.306;2023-07-31T02:33:24;94833.00;;;20.75;100.00
20119;BME280;10220;42.716;23.306;2023-07-31T02:35:50;94848.31;;;20.68;100.00
20119;BME280;10220;42.716;23.306;2023-07-31T02:38:15;94846.16;;;20.75;100.00
20119;BME280;10220;42.716;23.306;2023-07-31T02:40:40;94847.09;;;20.99;100.00
20119;BME280;10220;42.716;23.306;2023-07-31T02:43:07;94845.16;;;21.09;100.00
20119;BME280;10220;42.716;23.306;2023-07-31T02:45:32;94852.25;;;21.09;100.00
20119;BME280;10220;42.716;23.306;2023-07-31T02:47:58;94860.09;;;20.85;100.00
20119;BME280;10220;42.716;23.306;2023-07-31T02:50:23;94859.88;;;20.77;100.00
20119;BME280;10220;42.716;23.306;2023-07-31T02:52:48;94857.69;;;20.89;100.00
20119;BME280;10220;42.716;23.306;2023-07-31T02:55:14;94857.69;;;20.89;100.00
20119;BME280;10220;42.716;23.306;2023-07-31T02:57:39;94870.06;;;20.93;100.00
20119;BME280;10220;42.716;23.306;2023-07-31T03:00:05;94876.19;;;21.17;100.00
20119;BME280;10220;42.716;23.306;2023-07-31T03:02:32;94882.50;;;21.21;100.00
20119;BME280;10220;42.716;23.306;2023-07-31T03:04:57;94874.44;;;21.36;100.00
20119;BME280;10220;42.716;23.306;2023-07-31T03:07:26;94881.00;;;21.43;100.00
20119;BME280;10220;42.716;23.306;2023-07-31T03:09:51;94887.84;;;21.44;100.00
20119;BME280;10220;42.716;23.306;2023-07-31T03:12:17;94892.47;;;21.24;100.00
20119;BME280;10220;42.716;23.306;2023-07-31T03:14:42;94871.63;;;21.27;100.00
20119;BME280;10220;42.716;23.306;2023-07-31T03:17:08;94862.47;;;21.20;100.00
20119;BME280;10220;42.716;23.306;2023-07-31T03:19:33;94874.28;;;21.27;100.00
20119;BME280;10220;42.716;23.306;2023-07-31T03:21:59;94849.72;;;20.99;100.00
20119;BME280;10220;42.716;23.306;2023-07-31T03:24:25;94890.38;;;21.26;100.00
20119;BME280;10220;42.716;23.306;2023-07-31T03:26:51;94862.19;;;21.22;100.00
20119;BME280;10220;42.716;23.306;2023-07-31T03:29:16;94882.28;;;21.46;100.00
20119;BME280;10220;42.716;23.306;2023-07-31T03:31:42;94887.69;;;21.31;100.00
20119;BME280;10220;42.716;23.306;2023-07-31T03:34:07;94894.91;;;21.49;100.00
20119;BME280;10220;42.716;23.306;2023-07-31T03:36:32;94889.91;;;21.47;100.00
20119;BME280;10220;42.716;23.306;2023-07-31T03:38:58;94895.75;;;21.44;100.00
20119;BME280;10220;42.716;23.306;2023-07-31T03:41:23;94877.69;;;21.28;100.00
20119;BME280;10220;42.716;23.306;2023-07-31T03:43:50;94901.38;;;21.33;100.00
20119;BME280;10220;42.716;23.306;2023-07-31T03:46:22;94900.38;;;21.24;100.00
20119;BME280;10220;42.716;23.306;2023-07-31T03:48:47;94885.97;;;21.17;100.00
20119;BME280;10220;42.716;23.306;2023-07-31T03:51:13;94876.28;;;21.02;100.00
20119;BME280;10220;42.716;23.306;2023-07-31T03:53:38;94904.13;;;21.18;100.00
20119;BME280;10220;42.716;23.306;2023-07-31T03:56:04;94892.31;;;21.11;100.00
20119;BME280;10220;42.716;23.306;2023-07-31T03:58:29;94909.19;;;21.10;100.00
20119;BME280;10220;42.716;23.306;2023-07-31T04:00:55;94901.53;;;21.13;100.00
20119;BME280;10220;42.716;23.306;2023-07-31T04:03:20;94889.16;;;21.09;100.00
20119;BME280;10220;42.716;23.306;2023-07-31T04:05:46;94911.00;;;21.14;100.00
20119;BME280;10220;42.716;23.306;2023-07-31T04:08:11;94913.69;;;21.04;100.00
20119;BME280;10220;42.716;23.306;2023-07-31T04:10:36;94912.84;;;21.14;100.00
20119;BME280;10220;42.716;23.306;2023-07-31T04:13:02;94904.41;;;21.17;100.00
20119;BME280;10220;42.716;23.306;2023-07-31T04:15:27;94907.56;;;21.14;100.00
20119;BME280;10220;42.716;23.306;2023-07-31T04:17:53;94916.22;;;21.19;100.00
20119;BME280;10220;42.716;23.306;2023-07-31T04:20:18;94887.91;;;21.01;100.00
20119;BME280;10220;42.716;23.306;2023-07-31T04:22:43;94906.75;;;21.18;100.00
20119;BME280;10220;42.716;23.306;2023-07-31T04:25:09;94908.78;;;21.31;100.00
20119;BME280;10220;42.716;23.306;2023-07-31T04:27:34;94915.72;;;21.17;100.00
20119;BME280;10220;42.716;23.306;2023-07-31T04:30:00;94922.84;;;21.17;100.00
20119;BME280;10220;42.716;23.306;2023-07-31T04:32:25;94899.13;;;21.17;100.00
20119;BME280;10220;42.716;23.306;2023-07-31T04:34:51;94927.03;;;21.18;100.00
20119;BME280;10220;42.716;23.306;2023-07-31T04:37:16;94929.19;;;21.16;100.00
20119;BME280;10220;42.716;23.306;2023-07-31T04:39:42;94912.34;;;21.12;100.00
20119;BME280;10220;42.716;23.306;2023-07-31T04:42:09;94917.13;;;21.05;100.00
20119;BME280;10220;42.716;23.306;2023-07-31T04:44:35;94902.38;;;21.04;100.00
20119;BME280;10220;42.716;23.306;2023-07-31T04:47:04;94894.69;;;21.07;100.00
20119;BME280;10220;42.716;23.306;2023-07-31T04:49:29;94907.97;;;20.97;100.00
20119;BME280;10220;42.716;23.306;2023-07-31T04:51:55;94912.72;;;21.33;100.00
20119;BME280;10220;42.716;23.306;2023-07-31T04:54:20;94922.13;;;21.44;100.00
20119;BME280;10220;42.716;23.306;2023-07-31T04:56:45;94907.97;;;21.30;100.00
20119;BME280;10220;42.716;23.306;2023-07-31T04:59:12;94922.53;;;21.61;100.00
20119;BME280;10220;42.716;23.306;2023-07-31T05:01:41;94920.28;;;22.06;100.00
20119;BME280;10220;42.716;23.306;2023-07-31T05:04:06;94890.78;;;22.23;100.00
20119;BME280;10220;42.716;23.306;2023-07-31T05:06:32;94904.69;;;22.56;100.00
20119;BME280;10220;42.716;23.306;2023-07-31T05:08:57;94902.25;;;22.60;100.00
20119;BME280;10220;42.716;23.306;2023-07-31T05:11:23;94929.97;;;22.62;100.00
20119;BME280;10220;42.716;23.306;2023-07-31T05:13:48;94915.72;;;22.82;100.00
20119;BME280;10220;42.716;23.306;2023-07-31T05:16:14;94927.41;;;22.76;100.00
20119;BME280;10220;42.716;23.306;2023-07-31T05:18:39;94917.91;;;22.75;100.00
20119;BME280;10220;42.716;23.306;2023-07-31T05:21:04;94910.47;;;23.00;100.00
20119;BME280;10220;42.716;23.306;2023-07-31T05:23:30;94921.16;;;22.90;100.00
20119;BME280;10220;42.716;23.306;2023-07-31T05:26:03;94911.19;;;22.64;100.00
20119;BME280;10220;42.716;23.306;2023-07-31T05:28:29;94914.09;;;22.44;100.00
20119;BME280;10220;42.716;23.306;2023-07-31T05:31:04;94917.19;;;22.69;100.00
20119;BME280;10220;42.716;23.306;2023-07-31T05:33:30;94928.31;;;22.48;100.00
20119;BME280;10220;42.716;23.306;2023-07-31T05:35:56;94921.00;;;22.82;100.00
20119;BME280;10220;42.716;23.306;2023-07-31T05:38:22;94907.94;;;22.90;100.00
20119;BME280;10220;42.716;23.306;2023-07-31T05:40:48;94917.59;;;23.55;100.00
20119;BME280;10220;42.716;23.306;2023-07-31T05:43:16;94919.63;;;23.76;100.00
20119;BME280;10220;42.716;23.306;2023-07-31T05:45:42;94929.22;;;23.22;100.00
20119;BME280;10220;42.716;23.306;2023-07-31T05:48:11;94915.41;;;22.65;100.00
20119;BME280;10220;42.716;23.306;2023-07-31T05:50:36;94919.31;;;22.49;100.00
20119;BME280;10220;42.716;23.306;2023-07-31T05:53:04;94925.31;;;22.54;100.00
20119;BME280;10220;42.716;23.306;2023-07-31T05:55:29;94910.22;;;22.37;100.00
20119;BME280;10220;42.716;23.306;2023-07-31T05:57:55;94927.03;;;22.17;100.00
20119;BME280;10220;42.716;23.306;2023-07-31T06:00:20;94938.09;;;21.91;100.00
20119;BME280;10220;42.716;23.306;2023-07-31T06:02:47;94936.59;;;22.08;100.00
20119;BME280;10220;42.716;23.306;2023-07-31T06:05:12;94947.78;;;22.00;100.00
20119;BME280;10220;42.716;23.306;2023-07-31T06:07:38;94931.66;;;22.30;100.00
20119;BME280;10220;42.716;23.306;2023-07-31T06:10:04;94938.72;;;22.58;100.00
20119;BME280;10220;42.716;23.306;2023-07-31T06:12:34;94952.28;;;22.93;100.00
20119;BME280;10220;42.716;23.306;2023-07-31T06:14:59;94947.56;;;22.72;100.00
20119;BME280;10220;42.716;23.306;2023-07-31T06:17:25;94950.16;;;22.95;100.00
20119;BME280;10220;42.716;23.306;2023-07-31T06:19:51;94960.03;;;22.90;100.00
20119;BME280;10220;42.716;23.306;2023-07-31T06:22:17;94962.34;;;22.73;100.00
20119;BME280;10220;42.716;23.306;2023-07-31T06:25:01;94954.41;;;22.73;100.00
20119;BME280;10220;42.716;23.306;2023-07-31T06:27:28;94948.72;;;22.84;100.00
20119;BME280;10220;42.716;23.306;2023-07-31T06:29:53;94958.84;;;23.01;100.00
20119;BME280;10220;42.716;23.306;2023-07-31T06:32:19;94964.00;;;23.10;100.00
20119;BME280;10220;42.716;23.306;2023-07-31T06:34:44;94933.13;;;22.83;100.00
20119;BME280;10220;42.716;23.306;2023-07-31T06:37:10;94955.41;;;23.00;100.00
20119;BME280;10220;42.716;23.306;2023-07-31T06:39:35;94962.19;;;23.06;100.00
20119;BME280;10220;42.716;23.306;2023-07-31T06:42:01;94953.59;;;22.96;100.00
20119;BME280;10220;42.716;23.306;2023-07-31T06:44:26;94966.66;;;23.29;100.00
20119;BME280;10220;42.716;23.306;2023-07-31T06:46:52;94967.31;;;23.21;100.00
20119;BME280;10220;42.716;23.306;2023-07-31T06:49:17;94975.00;;;23.17;100.00
20119;BME280;10220;42.716;23.306;2023-07-31T06:51:45;94963.78;;;23.07;100.00
20119;BME280;10220;42.716;23.306;2023-07-31T06:54:11;94943.78;;;22.78;100.00
20119;BME280;10220;42.716;23.306;2023-07-31T06:56:36;94940.50;;;23.09;100.00
20119;BME280;10220;42.716;23.306;2023-07-31T06:59:02;94943.81;;;22.96;100.00
20119;BME280;10220;42.716;23.306;2023-07-31T07:01:31;94967.16;;;23.31;100.00
20119;BME280;10220;42.716;23.306;2023-07-31T07:03:56;94955.38;;;23.23;100.00
20119;BME280;10220;42.716;23.306;2023-07-31T07:06:22;94965.22;;;23.36;100.00
20119;BME280;10220;42.716;23.306;2023-07-31T07:08:47;94959.47;;;23.48;100.00
20119;BME280;10220;42.716;23.306;2023-07-31T07:11:13;94938.72;;;23.41;100.00
20119;BME280;10220;42.716;23.306;2023-07-31T07:13:38;94945.00;;;23.45;100.00
20119;BME280;10220;42.716;23.306;2023-07-31T07:16:04;94951.56;;;23.66;100.00
20119;BME280;10220;42.716;23.306;2023-07-31T07:18:29;94947.56;;;23.68;100.00
20119;BME280;10220;42.716;23.306;2023-07-31T07:20:54;94946.44;;;23.88;100.00
20119;BME280;10220;42.716;23.306;2023-07-31T07:23:22;94954.47;;;24.28;100.00
20119;BME280;10220;42.716;23.306;2023-07-31T07:25:47;94951.88;;;24.55;100.00
20119;BME280;10220;42.716;23.306;2023-07-31T07:28:13;94951.22;;;24.18;100.00
20119;BME280;10220;42.716;23.306;2023-07-31T07:30:39;94939.34;;;24.15;100.00
20119;BME280;10220;42.716;23.306;2023-07-31T07:33:05;94945.59;;;24.37;100.00
20119;BME280;10220;42.716;23.306;2023-07-31T07:35:33;94947.56;;;24.72;100.00
20119;BME280;10220;42.716;23.306;2023-07-31T07:37:58;94947.84;;;24.84;100.00
20119;BME280;10220;42.716;23.306;2023-07-31T07:40:24;94952.97;;;24.81;100.00
20119;BME280;10220;42.716;23.306;2023-07-31T07:42:50;94965.72;;;24.92;100.00
20119;BME280;10220;42.716;23.306;2023-07-31T07:45:15;94950.19;;;25.26;100.00
20119;BME280;10220;42.716;23.306;2023-07-31T07:47:41;94963.31;;;25.66;100.00
20119;BME280;10220;42.716;23.306;2023-07-31T07:50:07;94948.81;;;25.50;100.00
20119;BME280;10220;42.716;23.306;2023-07-31T07:52:33;94952.72;;;25.52;100.00
20119;BME280;10220;42.716;23.306;2023-07-31T07:54:58;94937.78;;;25.70;100.00
20119;BME280;10220;42.716;23.306;2023-07-31T07:57:25;94971.13;;;25.84;100.00
20119;BME280;10220;42.716;23.306;2023-07-31T07:59:51;94965.09;;;25.92;99.32
20119;BME280;10220;42.716;23.306;2023-07-31T08:02:16;94960.66;;;26.09;100.00
20119;BME280;10220;42.716;23.306;2023-07-31T08:04:41;94946.13;;;25.63;100.00
20119;BME280;10220;42.716;23.306;2023-07-31T08:07:07;94973.66;;;25.19;100.00
20119;BME280;10220;42.716;23.306;2023-07-31T08:09:32;94963.44;;;25.12;100.00
20119;BME280;10220;42.716;23.306;2023-07-31T08:11:58;94939.00;;;25.15;100.00
20119;BME280;10220;42.716;23.306;2023-07-31T08:14:27;94944.72;;;25.09;100.00
20119;BME280;10220;42.716;23.306;2023-07-31T08:16:53;94966.19;;;24.94;100.00
20119;BME280;10220;42.716;23.306;2023-07-31T08:19:18;94971.56;;;25.29;100.00
20119;BME280;10220;42.716;23.306;2023-07-31T08:21:43;94962.53;;;25.30;100.00
20119;BME280;10220;42.716;23.306;2023-07-31T08:24:09;94948.16;;;25.66;99.63
20119;BME280;10220;42.716;23.306;2023-07-31T08:26:34;94961.41;;;25.80;96.24
20119;BME280;10220;42.716;23.306;2023-07-31T08:29:03;94956.94;;;25.89;96.47
20119;BME280;10220;42.716;23.306;2023-07-31T08:31:28;94963.72;;;25.95;93.20
20119;BME280;10220;42.716;23.306;2023-07-31T08:33:55;94973.75;;;26.06;92.04
20119;BME280;10220;42.716;23.306;2023-07-31T08:36:21;94951.75;;;26.05;89.69
20119;BME280;10220;42.716;23.306;2023-07-31T08:38:46;94959.78;;;25.92;90.25
20119;BME280;10220;42.716;23.306;2023-07-31T08:41:11;94961.06;;;26.25;92.34
20119;BME280;10220;42.716;23.306;2023-07-31T08:43:39;94958.06;;;26.78;90.31
20119;BME280;10220;42.716;23.306;2023-07-31T08:46:04;94962.84;;;26.60;89.04
20119;BME280;10220;42.716;23.306;2023-07-31T08:48:31;94948.63;;;26.64;87.44
20119;BME280;10220;42.716;23.306;2023-07-31T08:50:57;94958.97;;;27.13;87.61
20119;BME280;10220;42.716;23.306;2023-07-31T08:53:23;94936.16;;;27.45;82.83
20119;BME280;10220;42.716;23.306;2023-07-31T08:55:49;94929.06;;;27.16;81.68
20119;BME280;10220;42.716;23.306;2023-07-31T08:58:14;94959.44;;;27.15;80.11
20119;BME280;10220;42.716;23.306;2023-07-31T09:00:41;94936.72;;;26.62;84.20
20119;BME280;10220;42.716;23.306;2023-07-31T09:03:14;94948.66;;;26.81;81.23
20119;BME280;10220;42.716;23.306;2023-07-31T09:05:43;94962.84;;;26.60;82.07
20119;BME280;10220;42.716;23.306;2023-07-31T09:08:10;94954.63;;;26.17;87.50
20119;BME280;10220;42.716;23.306;2023-07-31T09:10:43;94962.88;;;26.07;89.69
20119;BME280;10220;42.716;23.306;2023-07-31T09:13:15;94958.00;;;26.09;89.95
20119;BME280;10220;42.716;23.306;2023-07-31T09:15:44;94947.00;;;26.24;89.76
20119;BME280;10220;42.716;23.306;2023-07-31T09:18:10;94942.25;;;26.13;90.47
20119;BME280;10220;42.716;23.306;2023-07-31T09:20:36;94936.72;;;26.62;87.21
20119;BME280;10220;42.716;23.306;2023-07-31T09:23:07;94920.13;;;27.03;86.99
20119;BME280;10220;42.716;23.306;2023-07-31T09:25:33;94925.78;;;27.35;85.17
20119;BME280;10220;42.716;23.306;2023-07-31T09:28:04;94937.09;;;27.58;82.65
20119;BME280;10220;42.716;23.306;2023-07-31T09:30:30;94938.13;;;28.07;75.97
20119;BME280;10220;42.716;23.306;2023-07-31T09:33:06;94930.50;;;27.72;75.61
20119;BME280;10220;42.716;23.306;2023-07-31T09:35:34;94923.13;;;27.52;77.04
20119;BME280;10220;42.716;23.306;2023-07-31T09:38:08;94915.28;;;27.47;80.80
20119;BME280;10220;42.716;23.306;2023-07-31T09:40:36;94916.19;;;27.01;79.91
20119;BME280;10220;42.716;23.306;2023-07-31T09:43:13;94911.75;;;26.79;80.45
20119;BME280;10220;42.716;23.306;2023-07-31T09:45:43;94923.91;;;26.72;84.92
20119;BME280;10220;42.716;23.306;2023-07-31T09:48:12;94908.81;;;26.89;82.63
20119;BME280;10220;42.716;23.306;2023-07-31T09:50:40;94900.09;;;27.14;77.67
20119;BME280;10220;42.716;23.306;2023-07-31T09:53:07;94904.19;;;27.79;75.50
20119;BME280;10220;42.716;23.306;2023-07-31T09:55:33;94908.19;;;28.10;72.83
20119;BME280;10220;42.716;23.306;2023-07-31T09:57:59;94906.84;;;27.71;70.86
20119;BME280;10220;42.716;23.306;2023-07-31T10:00:24;94914.22;;;27.74;73.94
20119;BME280;10220;42.716;23.306;2023-07-31T10:02:53;94913.09;;;28.00;71.58
20119;BME280;10220;42.716;23.306;2023-07-31T10:05:22;94892.53;;;28.17;69.46
20119;BME280;10220;42.716;23.306;2023-07-31T10:07:53;94905.28;;;28.49;69.58
20119;BME280;10220;42.716;23.306;2023-07-31T10:10:21;94911.53;;;28.53;66.50
20119;BME280;10220;42.716;23.306;2023-07-31T10:12:52;94899.75;;;28.54;66.25
20119;BME280;10220;42.716;23.306;2023-07-31T10:15:18;94913.16;;;28.37;66.30
20119;BME280;10220;42.716;23.306;2023-07-31T10:17:44;94894.56;;;28.03;68.93
20119;BME280;10220;42.716;23.306;2023-07-31T10:23:52;94886.47;;;28.37;64.25
20119;BME280;10220;42.716;23.306;2023-07-31T10:26:18;94899.84;;;28.74;63.14
20119;BME280;10220;42.716;23.306;2023-07-31T10:28:48;94897.88;;;28.54;65.75
20119;BME280;10220;42.716;23.306;2023-07-31T10:31:15;94907.66;;;28.42;64.91
20119;BME280;10220;42.716;23.306;2023-07-31T10:33:41;94880.91;;;28.13;66.19
20119;BME280;10220;42.716;23.306;2023-07-31T10:36:20;94900.03;;;28.07;65.22
20119;BME280;10220;42.716;23.306;2023-07-31T10:39:06;94901.81;;;27.94;67.79
20119;BME280;10220;42.716;23.306;2023-07-31T10:42:09;94872.50;;;27.94;67.36
20119;BME280;10220;42.716;23.306;2023-07-31T10:44:59;94888.38;;;27.66;68.62
20119;BME280;10220;42.716;23.306;2023-07-31T10:47:46;94849.75;;;27.97;65.47
20119;BME280;10220;42.716;23.306;2023-07-31T10:50:22;94874.47;;;28.23;65.08
20119;BME280;10220;42.716;23.306;2023-07-31T10:52:51;94856.72;;;27.47;65.99
20119;BME280;10220;42.716;23.306;2023-07-31T10:55:44;94882.28;;;28.36;64.28
20119;BME280;10220;42.716;23.306;2023-07-31T10:58:14;94878.44;;;28.83;61.36
20119;BME280;10220;42.716;23.306;2023-07-31T11:00:44;94878.94;;;29.05;58.21
20119;BME280;10220;42.716;23.306;2023-07-31T11:03:12;94863.03;;;29.08;56.81
20119;BME280;10220;42.716;23.306;2023-07-31T11:05:59;94852.34;;;29.29;57.36
20119;BME280;10220;42.716;23.306;2023-07-31T11:08:28;94859.03;;;29.43;55.57
20119;BME280;10220;42.716;23.306;2023-07-31T11:13:30;94857.56;;;29.98;54.42
20119;BME280;10220;42.716;23.306;2023-07-31T11:15:55;94864.50;;;30.11;52.60
20119;BME280;10220;42.716;23.306;2023-07-31T11:18:21;94860.22;;;30.78;50.13
20119;BME280;10220;42.716;23.306;2023-07-31T11:20:47;94873.50;;;29.74;51.57
20119;BME280;10220;42.716;23.306;2023-07-31T11:23:16;94853.63;;;29.31;53.74
20119;BME280;10220;42.716;23.306;2023-07-31T11:25:41;94867.84;;;28.95;54.44
20119;BME280;10220;42.716;23.306;2023-07-31T11:28:10;94871.03;;;28.59;54.92
20119;BME280;10220;42.716;23.306;2023-07-31T11:30:36;94867.66;;;28.71;56.26
20119;BME280;10220;42.716;23.306;2023-07-31T11:33:03;94872.56;;;29.38;54.74
20119;BME280;10220;42.716;23.306;2023-07-31T11:35:36;94861.78;;;28.86;57.65
20119;BME280;10220;42.716;23.306;2023-07-31T11:38:07;94870.84;;;28.27;60.91
20119;BME280;10220;42.716;23.306;2023-07-31T11:40:43;94857.94;;;27.92;63.51
20119;BME280;10220;42.716;23.306;2023-07-31T11:43:10;94855.22;;;28.09;61.92
20119;BME280;10220;42.716;23.306;2023-07-31T11:45:48;94864.22;;;28.33;60.35
20119;BME280;10220;42.716;23.306;2023-07-31T11:48:28;94853.34;;;28.47;59.50
20119;BME280;10220;42.716;23.306;2023-07-31T11:50:59;94860.47;;;28.63;57.68
20119;BME280;10220;42.716;23.306;2023-07-31T11:53:34;94854.69;;;28.61;60.36
20119;BME280;10220;42.716;23.306;2023-07-31T11:56:01;94837.94;;;28.52;59.98
20119;BME280;10220;42.716;23.306;2023-07-31T11:58:34;94814.88;;;28.47;61.07
20119;BME280;10220;42.716;23.306;2023-07-31T12:01:03;94845.19;;;28.80;60.70
20119;BME280;10220;42.716;23.306;2023-07-31T12:03:35;94848.44;;;28.86;61.48
20119;BME280;10220;42.716;23.306;2023-07-31T12:06:01;94813.13;;;28.31;60.85
20119;BME280;10220;42.716;23.306;2023-07-31T12:08:27;94814.28;;;28.71;60.80
20119;BME280;10220;42.716;23.306;2023-07-31T12:10:54;94840.50;;;28.98;59.66
20119;BME280;10220;42.716;23.306;2023-07-31T12:13:24;94816.50;;;28.69;60.56
20119;BME280;10220;42.716;23.306;2023-07-31T12:15:59;94818.63;;;28.84;59.83
20119;BME280;10220;42.716;23.306;2023-07-31T12:18:27;94838.38;;;29.11;57.61
20119;BME280;10220;42.716;23.306;2023-07-31T12:20:58;94842.31;;;28.85;58.84
20119;BME280;10220;42.716;23.306;2023-07-31T12:23:31;94838.78;;;28.73;58.48
20119;BME280;10220;42.716;23.306;2023-07-31T12:26:06;94829.03;;;28.68;58.09
20119;BME280;10220;42.716;23.306;2023-07-31T12:28:41;94836.47;;;28.92;56.67
20119;BME280;10220;42.716;23.306;2023-07-31T12:31:27;94823.41;;;28.70;55.87
20119;BME280;10220;42.716;23.306;2023-07-31T12:33:55;94793.56;;;28.19;57.74
20119;BME280;10220;42.716;23.306;2023-07-31T12:36:23;94830.59;;;28.49;58.28
20119;BME280;10220;42.716;23.306;2023-07-31T12:38:52;94819.69;;;28.34;58.04
20119;BME280;10220;42.716;23.306;2023-07-31T12:41:18;94821.03;;;28.68;59.55
20119;BME280;10220;42.716;23.306;2023-07-31T12:44:02;94791.53;;;28.45;59.73
20119;BME280;10220;42.716;23.306;2023-07-31T12:46:28;94823.03;;;28.80;61.10
20119;BME280;10220;42.716;23.306;2023-07-31T12:48:53;94827.47;;;28.76;59.85
20119;BME280;10220;42.716;23.306;2023-07-31T12:51:34;94773.19;;;28.06;60.83
20119;BME280;10220;42.716;23.306;2023-07-31T12:54:00;94781.66;;;28.45;60.91
20119;BME280;10220;42.716;23.306;2023-07-31T12:56:26;94810.34;;;28.48;60.68
20119;BME280;10220;42.716;23.306;2023-07-31T12:58:51;94806.31;;;28.42;60.64